Time;durP1;ratioP1;P1;durP2;ratioP2;P2;SDS_P1;SDS_P2;PMS_P1;PMS_P2;Temp;Humidity;BMP_temperature;BMP_pressure;BME280_temperature;BME280_humidity;BME280_pressure;Samples;Min_cycle;Max_cycle;Signal;HPM_P1;HPM_P2
2021/05/22 00:00:50;;;;;;;3.13;1.67;;;9.10;99.90;;;;;;4920270;29;20184;-90
2021/05/22 00:03:16;;;;;;;4.63;1.30;;;;;;;;;;4920348;29;20229;-91
2021/05/22 00:05:41;;;;;;;2.70;1.50;;;9.10;99.90;;;;;;4919734;29;20192;-92
2021/05/22 00:08:07;;;;;;;6.53;1.50;;;9.10;99.90;;;;;;4920821;29;20481;-91
2021/05/22 00:10:33;;;;;;;3.03;2.30;;;9.10;99.90;;;;;;4920459;29;20209;-93
2021/05/22 00:12:59;;;;;;;4.40;1.27;;;9.10;99.90;;;;;;4921061;29;20690;-93
2021/05/22 00:15:24;;;;;;;5.73;1.87;;;9.00;99.90;;;;;;4920535;29;20189;-94
2021/05/22 00:17:50;;;;;;;3.93;1.57;;;9.00;99.90;;;;;;4921310;29;20181;-91
2021/05/22 00:20:16;;;;;;;3.63;1.60;;;8.90;99.90;;;;;;4920870;29;20213;-93
2021/05/22 00:22:43;;;;;;;6.43;1.10;;;8.90;99.90;;;;;;4920874;29;20181;-92
2021/05/22 00:25:10;;;;;;;3.03;1.20;;;8.80;99.90;;;;;;4920827;29;20225;-92
2021/05/22 00:27:36;;;;;;;2.83;1.87;;;8.80;99.90;;;;;;4919615;29;20950;-90
2021/05/22 00:30:04;;;;;;;4.37;1.50;;;8.90;99.90;;;;;;4920358;29;20436;-91
2021/05/22 00:32:30;;;;;;;4.93;2.00;;;8.90;99.90;;;;;;4920196;29;20512;-91
2021/05/22 00:34:56;;;;;;;3.10;1.80;;;8.90;99.90;;;;;;4920659;29;20508;-91
2021/05/22 00:37:21;;;;;;;5.33;1.50;;;8.90;99.90;;;;;;4920954;29;20216;-89
2021/05/22 00:39:47;;;;;;;4.43;1.87;;;8.80;99.90;;;;;;4920600;29;20613;-92
2021/05/22 00:42:12;;;;;;;3.87;2.03;;;9.00;99.90;;;;;;4920305;29;20174;-93
2021/05/22 00:45:08;;;;;;;5.43;0.93;;;8.90;99.90;;;;;;4920422;29;20178;-93
2021/05/22 00:47:35;;;;;;;5.03;1.50;;;9.00;99.90;;;;;;4920254;29;20173;-88
2021/05/22 00:50:01;;;;;;;7.10;1.93;;;9.00;99.90;;;;;;4935701;29;20417;-89
2021/05/22 00:52:27;;;;;;;3.80;1.53;;;9.10;99.90;;;;;;4918975;29;20415;-92
2021/05/22 00:54:53;;;;;;;4.40;1.53;;;9.20;99.90;;;;;;4918957;29;20439;-89
2021/05/22 00:57:18;;;;;;;3.53;1.80;;;9.20;99.90;;;;;;4919059;29;20418;-90
2021/05/22 00:59:44;;;;;;;3.73;1.30;;;9.20;99.90;;;;;;4921918;29;20521;-89
2021/05/22 01:02:11;;;;;;;7.03;1.83;;;9.30;99.90;;;;;;4924784;29;20181;-90
2021/05/22 01:04:37;;;;;;;4.00;1.43;;;9.30;99.90;;;;;;4922735;29;20177;-90
2021/05/22 01:07:03;;;;;;;4.70;1.47;;;9.30;99.90;;;;;;4920571;29;20929;-91
2021/05/22 01:09:31;;;;;;;3.47;1.33;;;9.30;99.90;;;;;;4921018;29;20477;-92
2021/05/22 01:12:01;;;;;;;5.00;1.63;;;9.30;99.90;;;;;;4920495;29;20428;-92
2021/05/22 01:14:43;;;;;;;5.10;1.37;;;9.20;99.90;;;;;;4921128;29;20518;-93
2021/05/22 01:17:13;;;;;;;3.77;1.00;;;9.30;99.90;;;;;;4928364;29;20457;-93
2021/05/22 01:19:42;;;;;;;8.30;2.63;;;9.30;99.90;;;;;;4925694;29;20481;-92
2021/05/22 01:22:10;;;;;;;5.40;1.43;;;9.30;99.90;;;;;;4927812;29;20916;-93
2021/05/22 01:25:00;;;;;;;3.90;1.30;;;9.30;99.90;;;;;;4928855;29;20919;-93
2021/05/22 01:27:26;;;;;;;4.47;1.03;;;9.30;99.90;;;;;;4928034;29;20512;-92
2021/05/22 01:29:53;;;;;;;3.03;1.00;;;9.30;99.90;;;;;;4927460;29;20478;-91
2021/05/22 01:32:18;;;;;;;2.90;1.17;;;9.30;99.90;;;;;;4928640;29;20519;-93
2021/05/22 01:34:45;;;;;;;3.60;1.37;;;9.30;99.90;;;;;;4927797;29;20516;-93
2021/05/22 01:37:10;;;;;;;5.43;0.90;;;9.30;99.90;;;;;;4926120;29;20189;-91
2021/05/22 01:39:36;;;;;;;3.33;0.80;;;9.30;99.90;;;;;;4924654;29;20827;-91
2021/05/22 01:42:05;;;;;;;3.67;0.77;;;9.40;99.90;;;;;;4917951;29;20206;-90
2021/05/22 01:44:34;;;;;;;2.77;1.10;;;9.20;99.90;;;;;;4910168;29;20234;-94
2021/05/22 01:47:03;;;;;;;3.97;1.60;;;9.30;99.90;;;;;;4933427;29;20452;-92
2021/05/22 01:49:31;;;;;;;3.60;1.33;;;9.30;99.90;;;;;;4910001;29;20759;-89
2021/05/22 01:51:57;;;;;;;4.63;0.80;;;9.30;99.90;;;;;;4917364;29;20522;-89
2021/05/22 01:54:24;;;;;;;4.00;0.70;;;9.30;99.90;;;;;;4923369;29;21005;-93
2021/05/22 01:56:50;;;;;;;1.33;0.63;;;9.40;99.90;;;;;;4929108;29;20419;-93
2021/05/22 01:59:19;;;;;;;4.03;0.43;;;9.30;99.90;;;;;;4914536;29;20453;-89
2021/05/22 02:01:51;;;;;;;1.93;1.00;;;9.20;99.90;;;;;;4914432;29;20420;-92
2021/05/22 02:04:22;;;;;;;3.70;1.10;;;;;;;;;;4920339;29;20483;-93
2021/05/22 02:06:51;;;;;;;1.80;1.10;;;9.10;99.90;;;;;;4922569;29;20419;-90
2021/05/22 02:09:19;;;;;;;2.97;0.60;;;9.00;99.90;;;;;;4904232;29;20436;-93
2021/05/22 02:11:47;;;;;;;6.30;1.47;;;9.00;99.90;;;;;;4921179;29;20468;-92
2021/05/22 02:14:19;;;;;;;4.77;1.57;;;8.90;99.90;;;;;;4920217;29;20478;-90
2021/05/22 02:16:49;;;;;;;2.90;1.10;;;8.90;99.90;;;;;;4923713;29;20473;-89
2021/05/22 02:19:17;;;;;;;4.67;1.83;;;9.00;99.90;;;;;;4923098;29;20430;-92
2021/05/22 02:21:44;;;;;;;3.70;1.10;;;8.90;99.90;;;;;;4923341;29;20505;-89
2021/05/22 02:24:14;;;;;;;5.10;1.50;;;8.90;99.90;;;;;;4924365;29;20459;-89
2021/05/22 02:26:41;;;;;;;8.13;0.80;;;8.90;99.90;;;;;;4924779;29;20513;-92
2021/05/22 02:29:15;;;;;;;4.37;0.97;;;8.80;99.90;;;;;;4922451;29;20796;-92
2021/05/22 02:31:43;;;;;;;3.77;1.40;;;8.80;99.90;;;;;;4923281;29;20406;-93
2021/05/22 02:34:10;;;;;;;4.70;0.90;;;8.80;99.90;;;;;;4922267;29;20485;-90
2021/05/22 02:36:38;;;;;;;2.50;1.20;;;8.80;99.90;;;;;;4923660;29;20442;-89
2021/05/22 02:39:06;;;;;;;4.87;1.00;;;8.90;99.90;;;;;;4924400;29;20517;-90
2021/05/22 02:41:31;;;;;;;5.73;1.50;;;8.90;99.90;;;;;;4923147;29;20524;-91
2021/05/22 02:44:00;;;;;;;3.60;1.17;;;9.00;99.90;;;;;;4922729;29;20472;-91
2021/05/22 02:46:27;;;;;;;3.80;1.23;;;9.00;99.90;;;;;;4922260;29;20174;-89
2021/05/22 02:48:54;;;;;;;2.20;1.00;;;9.10;99.90;;;;;;4922399;29;20436;-90
2021/05/22 02:51:24;;;;;;;2.87;1.23;;;9.10;99.90;;;;;;4921762;29;20572;-91
2021/05/22 02:53:50;;;;;;;3.07;0.63;;;9.00;99.90;;;;;;4939674;29;20496;-92
2021/05/22 02:56:16;;;;;;;3.27;1.70;;;9.10;99.90;;;;;;4922520;29;20432;-93
2021/05/22 02:58:44;;;;;;;7.60;2.33;;;9.10;99.90;;;;;;4922649;29;20421;-93
2021/05/22 03:01:10;;;;;;;5.13;0.70;;;9.00;99.90;;;;;;4922517;29;20435;-92
2021/05/22 03:03:37;;;;;;;2.10;0.77;;;9.00;99.90;;;;;;4924054;29;20480;-91
2021/05/22 03:06:04;;;;;;;9.37;1.10;;;9.00;99.90;;;;;;4929429;29;20433;-91
2021/05/22 03:08:30;;;;;;;7.20;1.23;;;8.90;99.90;;;;;;4931775;29;20422;-90
2021/05/22 03:10:57;;;;;;;4.77;1.23;;;8.80;99.90;;;;;;4929097;29;20512;-91
2021/05/22 03:13:23;;;;;;;5.10;1.13;;;8.80;99.90;;;;;;4923905;29;20205;-92
2021/05/22 03:15:48;;;;;;;3.10;0.70;;;8.80;99.90;;;;;;4922865;29;20561;-89
2021/05/22 03:18:14;;;;;;;3.77;1.00;;;8.80;99.90;;;;;;4923518;29;20457;-91
2021/05/22 03:20:39;;;;;;;4.40;1.07;;;8.80;99.90;;;;;;4922083;29;20596;-88
2021/05/22 03:23:05;;;;;;;5.63;1.33;;;8.70;99.90;;;;;;4922762;29;20213;-91
2021/05/22 03:25:31;;;;;;;3.10;1.00;;;8.70;99.90;;;;;;4921748;29;20284;-90
2021/05/22 03:27:58;;;;;;;4.53;1.03;;;8.60;99.90;;;;;;4921679;29;20879;-92
2021/05/22 03:30:28;;;;;;;5.43;1.00;;;8.60;99.90;;;;;;4922234;29;20272;-92
2021/05/22 03:32:53;;;;;;;3.80;1.03;;;8.60;99.90;;;;;;4921172;29;20489;-93
2021/05/22 03:35:19;;;;;;;5.27;0.63;;;8.60;99.90;;;;;;4921138;29;20477;-90
2021/05/22 03:37:45;;;;;;;3.30;1.20;;;8.70;99.90;;;;;;4921498;29;20217;-88
2021/05/22 03:40:11;;;;;;;5.70;1.27;;;8.70;99.90;;;;;;4920376;29;20178;-91
2021/05/22 03:42:36;;;;;;;6.70;1.73;;;8.70;99.90;;;;;;4921080;29;20181;-90
2021/05/22 03:45:03;;;;;;;4.13;0.57;;;8.70;99.90;;;;;;4921222;29;20448;-90
2021/05/22 03:47:31;;;;;;;5.10;0.80;;;8.70;99.90;;;;;;4921320;29;20183;-92
2021/05/22 03:49:56;;;;;;;3.80;0.60;;;8.70;99.90;;;;;;4920785;29;20524;-91
2021/05/22 03:52:22;;;;;;;7.53;1.07;;;8.70;99.90;;;;;;4921117;29;20517;-89
2021/05/22 03:54:47;;;;;;;2.60;0.47;;;8.80;99.90;;;;;;4921119;29;20229;-89
2021/05/22 03:57:13;;;;;;;1.83;0.77;;;8.80;99.90;;;;;;4920864;29;20180;-91
2021/05/22 03:59:39;;;;;;;3.10;0.93;;;9.00;99.90;;;;;;4920740;29;20185;-90
2021/05/22 04:02:04;;;;;;;2.00;0.50;;;9.00;99.90;;;;;;4926274;29;20233;-90
2021/05/22 04:04:30;;;;;;;1.90;0.83;;;9.10;99.90;;;;;;4928878;29;20188;-90
2021/05/22 04:06:55;;;;;;;1.90;0.80;;;9.10;99.90;;;;;;4924101;29;20221;-93
2021/05/22 04:09:21;;;;;;;5.40;0.73;;;9.10;99.90;;;;;;4922654;29;20198;-92
2021/05/22 04:11:46;;;;;;;4.77;0.90;;;9.20;99.90;;;;;;4921365;29;20209;-91
2021/05/22 04:14:12;;;;;;;3.63;1.07;;;9.30;99.90;;;;;;4922119;29;20210;-93
2021/05/22 04:16:38;;;;;;;2.30;0.70;;;9.50;99.90;;;;;;4924534;29;20557;-93
2021/05/22 04:19:07;;;;;;;3.17;0.53;;;9.40;99.90;;;;;;4924018;29;20177;-89
2021/05/22 04:21:32;;;;;;;1.87;0.77;;;9.50;99.90;;;;;;4922129;29;20233;-92
2021/05/22 04:23:58;;;;;;;2.20;0.60;;;9.50;99.90;;;;;;4940517;29;20438;-89
2021/05/22 04:26:23;;;;;;;4.63;0.40;;;9.60;99.90;;;;;;4940191;29;20442;-91
2021/05/22 04:28:49;;;;;;;4.57;0.47;;;9.60;99.90;;;;;;4938350;29;20187;-88
2021/05/22 04:31:15;;;;;;;3.30;0.60;;;9.70;99.90;;;;;;4932406;29;20178;-89
2021/05/22 04:33:40;;;;;;;1.90;0.20;;;9.80;99.90;;;;;;4913685;29;20236;-90
2021/05/22 04:36:06;;;;;;;2.50;0.43;;;9.90;99.90;;;;;;4903735;29;20192;-93
2021/05/22 04:38:32;;;;;;;3.07;0.40;;;10.00;99.90;;;;;;4903956;29;20198;-90
2021/05/22 04:40:58;;;;;;;3.43;0.80;;;10.10;99.90;;;;;;4905302;29;20427;-93
2021/05/22 04:43:24;;;;;;;2.63;0.63;;;10.20;99.90;;;;;;4903880;29;20182;-92
2021/05/22 04:45:49;;;;;;;1.60;0.57;;;10.40;99.90;;;;;;4904079;29;20181;-93
2021/05/22 04:48:15;;;;;;;5.13;0.83;;;10.40;95.70;;;;;;4904050;29;20660;-92
2021/05/22 04:50:40;;;;;;;3.13;0.90;;;10.60;83.80;;;;;;4904778;29;20232;-91
2021/05/22 04:53:06;;;;;;;3.43;0.33;;;10.60;63.20;;;;;;4904571;29;20234;-93
2021/05/22 04:55:32;;;;;;;3.27;0.50;;;10.70;65.50;;;;;;4905712;29;20551;-93
2021/05/22 04:57:57;;;;;;;7.60;1.00;;;10.80;59.00;;;;;;4902716;29;20183;-91
2021/05/22 05:00:23;;;;;;;3.53;0.47;;;10.90;42.80;;;;;;4901467;29;20180;-92
2021/05/22 05:02:50;;;;;;;3.60;0.60;;;11.00;36.30;;;;;;4900849;29;20180;-93
2021/05/22 05:05:17;;;;;;;1.50;0.43;;;11.00;39.30;;;;;;4901165;29;20206;-90
2021/05/22 05:07:43;;;;;;;2.80;0.33;;;11.10;26.30;;;;;;4900608;29;20431;-90
2021/05/22 05:10:10;;;;;;;3.17;0.47;;;11.20;18.80;;;;;;4901180;29;20562;-89
2021/05/22 05:12:36;;;;;;;3.90;0.40;;;11.30;23.50;;;;;;4902366;29;20183;-94
2021/05/22 05:15:03;;;;;;;2.50;0.37;;;11.40;11.70;;;;;;4905108;29;20436;-91
2021/05/22 05:17:29;;;;;;;3.37;0.30;;;11.50;3.30;;;;;;4904382;29;20958;-94
2021/05/22 05:19:54;;;;;;;2.40;0.47;;;11.60;2.00;;;;;;4902339;29;20471;-93
2021/05/22 05:22:20;;;;;;;1.90;0.20;;;11.70;1.00;;;;;;4903062;29;20267;-92
2021/05/22 05:24:45;;;;;;;2.03;0.30;;;11.80;1.00;;;;;;4903898;29;20207;-93
2021/05/22 05:27:12;;;;;;;2.23;0.30;;;12.00;1.00;;;;;;4903447;29;20841;-92
2021/05/22 05:29:39;;;;;;;3.40;1.33;;;11.90;1.00;;;;;;4902209;29;20243;-91
2021/05/22 05:32:08;;;;;;;3.80;1.10;;;11.90;1.00;;;;;;4902466;29;20804;-92
2021/05/22 05:34:33;;;;;;;2.00;0.37;;;11.90;1.00;;;;;;4901297;29;20494;-91
2021/05/22 05:36:59;;;;;;;5.27;1.23;;;12.00;1.00;;;;;;4903514;29;20528;-91
2021/05/22 05:39:24;;;;;;;1.20;0.40;;;12.20;1.00;;;;;;4901976;29;20331;-92
2021/05/22 05:41:50;;;;;;;3.40;0.50;;;12.50;1.00;;;;;;4901978;29;20633;-92
2021/05/22 05:44:16;;;;;;;6.47;1.07;;;12.90;1.00;;;;;;4917527;29;20178;-90
2021/05/22 05:46:41;;;;;;;1.80;0.40;;;13.20;1.00;;;;;;4901280;29;20176;-92
2021/05/22 05:49:07;;;;;;;1.80;0.30;;;13.40;1.00;;;;;;4900698;29;20245;-90
2021/05/22 05:51:33;;;;;;;3.50;0.30;;;13.60;1.00;;;;;;4900863;29;20173;-90
2021/05/22 05:53:58;;;;;;;4.37;0.47;;;13.70;1.00;;;;;;4900363;29;20218;-93
2021/05/22 05:56:24;;;;;;;1.23;0.47;;;13.90;1.00;;;;;;4919065;29;20421;-92
2021/05/22 05:58:50;;;;;;;1.70;0.23;;;14.30;1.00;;;;;;4899450;29;20605;-90
2021/05/22 06:01:15;;;;;;;7.00;0.67;;;14.50;1.00;;;;;;4900839;29;20187;-91
2021/05/22 06:03:43;;;;;;;6.40;0.67;;;14.60;1.00;;;;;;4902365;29;20631;-93
2021/05/22 06:06:08;;;;;;;3.67;0.40;;;14.60;1.00;;;;;;4904797;29;20730;-91
2021/05/22 06:08:34;;;;;;;2.70;0.40;;;14.80;1.00;;;;;;4905152;29;20461;-93
2021/05/22 06:11:01;;;;;;;3.17;0.30;;;14.90;1.00;;;;;;4906601;29;20431;-93
2021/05/22 06:13:35;;;;;;;9.73;0.90;;;15.10;99.90;;;;;;4909867;29;20308;-92
2021/05/22 06:18:35;;;;;;;3.13;0.70;;;15.30;1.00;;;;;;4925029;29;20503;-93
2021/05/22 06:21:02;;;;;;;1.43;0.20;;;15.60;99.90;;;;;;4926250;29;20415;-88
2021/05/22 06:23:29;;;;;;;3.67;0.70;;;15.30;99.90;;;;;;4905141;29;20418;-91
2021/05/22 06:25:55;;;;;;;4.67;0.63;;;15.10;99.90;;;;;;4905452;29;20502;-92
2021/05/22 06:28:20;;;;;;;2.80;0.40;;;15.00;99.90;;;;;;4923697;29;20431;-92
2021/05/22 06:30:47;;;;;;;2.77;0.30;;;14.90;1.00;;;;;;4907241;29;20482;-90
2021/05/22 06:33:13;;;;;;;3.80;0.73;;;15.00;1.00;;;;;;4906034;29;20319;-88
2021/05/22 06:35:38;;;;;;;1.77;0.30;;;15.40;99.90;;;;;;4924915;29;20463;-90
2021/05/22 06:38:04;;;;;;;2.63;0.40;;;15.70;1.00;;;;;;4928882;29;20181;-93
2021/05/22 06:40:30;;;;;;;2.83;0.20;;;16.10;99.90;;;;;;4926919;29;20181;-87
2021/05/22 06:42:55;;;;;;;1.67;0.30;;;17.40;7.60;;;;;;4926967;29;20185;-89
2021/05/22 06:45:24;;;;;;;4.63;0.60;;;17.80;99.90;;;;;;4929771;29;20174;-86
2021/05/22 06:47:49;;;;;;;4.30;0.30;;;17.90;19.70;;;;;;4916833;29;20188;-90
2021/05/22 06:50:16;;;;;;;1.90;0.37;;;18.30;99.90;;;;;;4932932;29;20399;-91
2021/05/22 06:52:41;;;;;;;4.10;0.40;;;18.10;1.00;;;;;;4919668;29;20178;-90
2021/05/22 06:55:08;;;;;;;2.70;0.40;;;17.60;99.90;;;;;;4931579;29;20935;-91
2021/05/22 06:57:34;;;;;;;5.90;0.20;;;17.10;1.00;;;;;;4910329;29;20244;-92
2021/05/22 06:59:59;;;;;;;4.03;0.40;;;16.90;1.00;;;;;;4909478;29;20468;-91
2021/05/22 07:02:25;;;;;;;2.10;0.20;;;16.70;34.10;;;;;;4923584;29;20411;-91
2021/05/22 07:04:51;;;;;;;3.90;0.50;;;16.50;1.00;;;;;;4920018;29;20268;-90
2021/05/22 07:07:17;;;;;;;3.73;0.40;;;16.50;99.90;;;;;;4937415;29;20164;-90
2021/05/22 07:09:43;;;;;;;2.93;0.40;;;16.40;99.90;;;;;;4909999;29;20278;-91
2021/05/22 07:12:10;;;;;;;2.80;0.43;;;16.10;27.70;;;;;;4926677;29;20441;-94
2021/05/22 07:14:36;;;;;;;3.13;0.53;;;16.00;1.00;;;;;;4927471;29;21051;-92
2021/05/22 07:17:02;;;;;;;2.83;0.70;;;15.90;99.90;;;;;;4924001;29;20432;-91
2021/05/22 07:19:28;;;;;;;1.97;0.50;;;16.10;1.00;;;;;;4906968;29;20429;-90
2021/05/22 07:21:54;;;;;;;5.20;0.77;;;16.20;99.90;;;;;;4910360;29;20343;-94
2021/05/22 07:24:21;;;;;;;2.63;0.30;;;16.80;99.90;;;;;;4910670;29;20177;-93
2021/05/22 07:26:48;;;;;;;2.77;0.93;;;17.20;1.00;;;;;;4928136;29;20465;-92
2021/05/22 07:29:16;;;;;;;3.60;1.10;;;17.50;84.90;;;;;;4895513;29;20437;-94
2021/05/22 07:31:43;;;;;;;2.00;0.70;;;17.60;99.90;;;;;;4908455;29;20449;-93
2021/05/22 07:34:10;;;;;;;2.90;0.57;;;17.50;1.00;;;;;;4907116;29;20851;-91
2021/05/22 07:36:37;;;;;;;2.83;0.43;;;17.20;1.00;;;;;;4906709;29;21009;-91
2021/05/22 07:39:05;;;;;;;2.47;0.30;;;16.70;1.00;;;;;;4906954;29;20932;-92
2021/05/22 07:41:31;;;;;;;3.57;0.60;;;16.50;99.90;;;;;;4909200;29;20418;-93
2021/05/22 07:43:57;;;;;;;6.67;0.50;;;16.50;1.00;;;;;;4914624;29;20450;-91
2021/05/22 07:46:23;;;;;;;1.70;0.30;;;16.70;1.00;;;;;;4896910;29;20185;-95
2021/05/22 07:48:51;;;;;;;1.80;0.20;;;16.60;99.90;;;;;;4896423;29;20197;-92
2021/05/22 07:51:17;;;;;;;3.23;0.70;;;16.70;99.90;;;;;;4905830;29;20418;-93
2021/05/22 07:53:42;;;;;;;1.70;0.30;;;16.50;1.00;;;;;;4906720;29;20476;-94
2021/05/22 07:56:08;;;;;;;4.57;0.70;;;16.60;1.00;;;;;;4908578;29;20176;-92
2021/05/22 07:58:33;;;;;;;2.70;0.70;;;16.50;1.00;;;;;;4906659;29;20248;-93
2021/05/22 08:00:59;;;;;;;1.63;0.30;;;16.60;1.00;;;;;;4924108;29;20175;-92
2021/05/22 08:03:25;;;;;;;2.10;0.60;;;16.80;99.90;;;;;;4893353;29;20180;-89
2021/05/22 08:05:50;;;;;;;3.00;0.30;;;16.80;99.90;;;;;;4912128;29;20285;-94
2021/05/22 08:08:16;;;;;;;2.10;0.60;;;16.80;1.00;;;;;;4911176;29;20199;-92
2021/05/22 08:10:42;;;;;;;3.13;0.60;;;17.00;1.00;;;;;;4924115;29;20260;-90
2021/05/22 08:13:09;;;;;;;2.10;0.27;;;16.70;99.90;;;;;;4923151;29;20202;-94
2021/05/22 08:15:38;;;;;;;2.50;0.20;;;16.40;1.00;;;;;;4906786;29;20187;-90
2021/05/22 08:18:04;;;;;;;2.87;0.60;;;16.10;99.90;;;;;;4905912;29;20433;-91
2021/05/22 08:20:30;;;;;;;2.10;0.50;;;15.90;66.50;;;;;;4919266;29;20429;-86
2021/05/22 08:22:56;;;;;;;2.23;0.20;;;15.80;99.90;;;;;;4904786;29;20428;-92
2021/05/22 08:25:22;;;;;;;5.63;0.37;;;15.70;1.00;;;;;;4905009;29;20430;-92
2021/05/22 08:27:50;;;;;;;4.63;0.40;;;15.50;99.90;;;;;;4918170;29;20259;-91
2021/05/22 08:30:17;;;;;;;1.97;0.30;;;15.70;99.90;;;;;;4918569;29;20185;-87
2021/05/22 08:32:43;;;;;;;2.80;0.30;;;15.60;99.90;;;;;;4922530;29;20456;-89
2021/05/22 08:35:09;;;;;;;3.27;0.47;;;15.70;99.90;;;;;;4938588;29;20431;-92
2021/05/22 08:37:35;;;;;;;2.03;0.43;;;15.60;99.90;;;;;;4922646;29;20424;-88
2021/05/22 08:40:02;;;;;;;2.47;0.63;;;15.50;99.90;;;;;;4940184;29;20458;-91
2021/05/22 08:42:29;;;;;;;1.90;0.20;;;15.40;99.90;;;;;;4921767;29;20429;-90
2021/05/22 08:45:08;;;;;;;4.40;0.53;;;15.40;1.00;;;;;;4922218;29;20437;-92
2021/05/22 08:47:35;;;;;;;2.47;0.40;;;15.30;1.00;;;;;;4939905;29;20546;-90
2021/05/22 08:50:03;;;;;;;4.70;0.97;;;15.50;1.00;;;;;;4922957;29;20425;-92
2021/05/22 08:52:35;;;;;;;4.13;0.50;;;15.90;1.00;;;;;;4938899;29;20435;-91
2021/05/22 08:55:01;;;;;;;3.23;0.70;;;16.10;99.90;;;;;;4922681;29;20531;-93
2021/05/22 08:57:26;;;;;;;3.10;0.40;;;16.00;1.00;;;;;;4939684;29;20411;-93
2021/05/22 08:59:52;;;;;;;2.40;0.30;;;16.30;99.90;;;;;;4936277;29;20177;-90
2021/05/22 09:02:21;;;;;;;3.83;0.40;;;16.50;1.00;;;;;;4922962;29;20208;-89
2021/05/22 09:05:08;;;;;;;4.00;0.43;;;16.70;99.90;;;;;;4933196;29;20384;-87
2021/05/22 09:07:36;;;;;;;3.23;0.73;;;16.80;99.90;;;;;;4936316;29;20425;-89
2021/05/22 09:10:21;;;;;;;4.50;0.60;;;16.80;99.90;;;;;;4936179;29;20440;-86
2021/05/22 09:12:51;;;;;;;2.70;0.60;;;16.60;99.90;;;;;;4919275;29;20435;-89
2021/05/22 09:15:22;;;;;;;4.63;0.67;;;16.70;99.90;;;;;;4938528;29;20510;-87
2021/05/22 09:17:56;;;;;;;5.00;0.80;;;16.70;99.90;;;;;;4921591;29;20427;-87
2021/05/22 09:20:28;;;;;;;3.43;0.40;;;16.30;99.90;;;;;;4943183;29;20942;-86
2021/05/22 09:22:56;;;;;;;3.37;0.43;;;15.90;1.00;;;;;;4938541;29;20507;-85
2021/05/22 09:25:22;;;;;;;6.17;1.30;;;15.30;1.00;;;;;;4935912;29;20454;-89
2021/05/22 09:27:50;;;;;;;2.30;0.30;;;14.80;1.00;;;;;;4936276;29;20777;-92
2021/05/22 09:30:17;;;;;;;6.27;0.67;;;14.50;1.00;;;;;;4919767;29;20506;-87
2021/05/22 09:32:44;;;;;;;2.57;0.40;;;14.10;1.00;;;;;;4916014;29;20476;-87
2021/05/22 09:35:10;;;;;;;3.77;0.70;;;13.70;8.90;;;;;;4900863;29;20449;-92
2021/05/22 09:37:51;;;;;;;2.07;0.70;;;13.50;27.30;;;;;;4907650;29;21002;-90
2021/05/22 09:40:20;;;;;;;1.77;0.50;;;13.40;46.60;;;;;;4919304;29;20480;-87
2021/05/22 09:42:46;;;;;;;1.30;0.37;;;13.40;68.80;;;;;;4925341;29;20430;-91
2021/05/22 09:45:25;;;;;;;3.17;0.53;;;13.50;87.30;;;;;;4928748;29;20432;-92
2021/05/22 09:47:51;;;;;;;1.27;0.30;;;13.80;80.60;;;;;;4930437;29;20429;-90
2021/05/22 09:50:40;;;;;;;3.40;0.40;;;14.00;34.00;;;;;;4928789;29;20431;-91
2021/05/22 09:53:22;;;;;;;1.30;0.40;;;14.10;13.90;;;;;;4926481;29;20557;-89
2021/05/22 09:56:10;;;;;;;2.77;0.40;;;14.10;14.20;;;;;;4941864;29;20430;-93
2021/05/22 09:58:42;;;;;;;5.40;0.43;;;14.30;28.90;;;;;;4925962;29;20465;-91
2021/05/22 10:01:09;;;;;;;2.00;0.50;;;14.60;36.00;;;;;;4925246;29;20416;-91
2021/05/22 10:03:35;;;;;;;3.00;0.50;;;14.80;28.50;;;;;;4946006;29;21035;-90
2021/05/22 10:06:01;;;;;;;2.83;0.53;;;14.80;11.60;;;;;;4949882;29;20411;-89
2021/05/22 10:08:27;;;;;;;2.90;0.40;;;14.80;3.30;;;;;;4957170;29;20418;-91
2021/05/22 10:10:56;;;;;;;3.60;0.77;;;14.70;11.70;;;;;;4959065;29;20211;-89
2021/05/22 10:13:24;;;;;;;1.07;0.43;;;14.50;1.00;;;;;;4927254;29;20458;-90
2021/05/22 10:15:52;;;;;;;2.77;0.50;;;14.70;21.20;;;;;;4946919;29;20454;-91
2021/05/22 10:18:19;;;;;;;2.53;0.50;;;14.90;2.70;;;;;;4928430;29;20413;-91
2021/05/22 10:20:45;;;;;;;1.90;0.97;;;14.70;1.00;;;;;;4912405;29;20442;-91
2021/05/22 10:23:12;;;;;;;1.60;0.20;;;14.60;1.00;;;;;;4927341;29;20423;-89
2021/05/22 10:25:38;;;;;;;2.40;0.20;;;14.50;1.00;;;;;;4927973;29;20422;-93
2021/05/22 10:28:05;;;;;;;2.33;0.40;;;14.70;1.30;;;;;;4928614;29;20517;-92
2021/05/22 10:30:31;;;;;;;1.53;0.40;;;14.80;1.00;;;;;;4922694;29;20597;-90
2021/05/22 10:33:05;;;;;;;3.90;0.50;;;15.00;1.00;;;;;;4922252;29;20478;-91
2021/05/22 10:35:51;;;;;;;2.10;0.30;;;15.20;1.00;;;;;;4945976;29;20422;-93
2021/05/22 10:38:32;;;;;;;2.80;0.40;;;15.10;1.00;;;;;;4926302;29;20469;-91
2021/05/22 10:41:04;;;;;;;3.87;0.67;;;14.90;1.00;;;;;;4944527;29;20424;-92
2021/05/22 10:43:51;;;;;;;2.10;0.60;;;14.80;1.00;;;;;;4926229;29;20782;-93
2021/05/22 10:46:17;;;;;;;5.93;0.57;;;14.70;1.00;;;;;;4925770;29;20501;-91
2021/05/22 10:49:00;;;;;;;1.03;0.30;;;14.80;1.00;;;;;;4922940;29;20425;-90
2021/05/22 10:51:34;;;;;;;1.00;0.20;;;14.50;5.10;;;;;;4922414;29;20430;-90
2021/05/22 10:54:03;;;;;;;0.80;0.20;;;14.40;17.60;;;;;;4922260;29;20474;-91
2021/05/22 10:56:30;;;;;;;2.83;0.53;;;14.40;27.20;;;;;;4922781;29;20485;-90
2021/05/22 10:58:59;;;;;;;2.30;1.17;;;14.40;19.00;;;;;;4925088;29;20442;-94
2021/05/22 11:01:47;;;;;;;1.33;0.43;;;14.30;27.80;;;;;;4940831;29;20413;-91
2021/05/22 11:07:19;;;;;;;2.60;0.33;;;13.70;46.90;;;;;;4939772;29;20514;-89
2021/05/22 11:09:48;;;;;;;1.27;0.20;;;13.70;63.90;;;;;;4928790;29;20199;-91
2021/05/22 11:12:18;;;;;;;1.07;0.43;;;13.70;92.50;;;;;;4939301;29;20421;-88
2021/05/22 11:14:52;;;;;;;2.67;0.57;;;13.70;84.50;;;;;;4939897;29;20465;-90
2021/05/22 11:17:25;;;;;;;3.00;0.57;;;13.80;94.40;;;;;;4941216;29;20414;-90
2021/05/22 11:19:57;;;;;;;4.30;0.53;;;13.90;73.60;;;;;;4925244;29;20987;-88
2021/05/22 11:22:25;;;;;;;2.37;0.50;;;13.80;43.70;;;;;;4923317;29;20455;-93
2021/05/22 11:25:09;;;;;;;2.40;0.33;;;13.70;66.60;;;;;;4940535;29;20500;-92
2021/05/22 11:27:56;;;;;;;1.63;0.40;;;13.60;96.30;;;;;;4925692;29;20428;-91
2021/05/22 11:30:43;;;;;;;1.63;0.40;;;13.50;92.80;;;;;;4944098;29;20977;-91
2021/05/22 11:33:25;;;;;;;1.27;0.30;;;13.50;96.30;;;;;;4929358;29;20470;-89
2021/05/22 11:36:12;;;;;;;1.90;0.67;;;13.50;99.90;;;;;;4939338;29;20430;-87
2021/05/22 11:38:38;;;;;;;1.83;0.60;;;13.60;99.90;;;;;;4941476;29;20422;-88
2021/05/22 11:41:08;;;;;;;2.20;0.80;;;13.80;84.50;;;;;;4934994;29;20439;-91
2021/05/22 11:43:34;;;;;;;2.10;0.57;;;13.80;66.00;;;;;;4947139;29;20469;-88
2021/05/22 11:46:10;;;;;;;6.67;0.50;;;13.60;58.00;;;;;;4932020;29;20429;-92
2021/05/22 11:48:49;;;;;;;2.77;0.50;;;13.60;67.10;;;;;;4946112;29;20191;-91
2021/05/22 11:51:33;;;;;;;2.60;0.60;;;13.50;77.00;;;;;;4944649;29;20465;-87
2021/05/22 11:53:59;;;;;;;2.73;0.40;;;13.60;85.80;;;;;;4927472;29;21043;-92
2021/05/22 11:56:26;;;;;;;0.63;0.27;;;13.50;79.10;;;;;;4927628;29;20457;-93
2021/05/22 11:58:54;;;;;;;3.60;0.40;;;13.50;89.50;;;;;;4942051;29;20181;-93
2021/05/22 12:01:32;;;;;;;2.07;0.60;;;13.70;92.50;;;;;;4910380;29;20497;-94
2021/05/22 12:04:07;;;;;;;1.00;0.40;;;13.60;88.10;;;;;;4923920;29;20461;-92
2021/05/22 12:06:47;;;;;;;2.33;0.50;;;13.60;92.40;;;;;;4941472;29;20426;-94
2021/05/22 12:09:19;;;;;;;1.13;0.30;;;13.60;91.90;;;;;;4941549;29;20440;-92
2021/05/22 12:12:04;;;;;;;1.80;0.30;;;13.70;78.10;;;;;;4924532;29;21003;-93
2021/05/22 12:14:37;;;;;;;1.83;0.40;;;13.80;77.00;;;;;;4923516;29;20892;-91
2021/05/22 12:17:04;;;;;;;0.83;0.33;;;13.90;64.40;;;;;;4941633;29;20482;-93
2021/05/22 12:19:34;;;;;;;1.20;0.77;;;14.00;71.60;;;;;;4942517;29;20416;-94
2021/05/22 12:22:00;;;;;;;3.60;0.57;;;14.10;41.80;;;;;;4942018;29;20410;-92
2021/05/22 12:24:27;;;;;;;1.73;0.33;;;14.30;34.30;;;;;;4926952;29;20430;-93
2021/05/22 12:26:55;;;;;;;3.37;0.33;;;14.20;18.50;;;;;;4942076;29;20183;-91
2021/05/22 12:29:25;;;;;;;0.50;0.37;;;14.40;29.80;;;;;;4926469;29;20430;-91
2021/05/22 12:31:59;;;;;;;3.33;0.70;;;14.50;15.70;;;;;;4943053;29;20427;-91
2021/05/22 12:34:33;;;;;;;2.23;0.60;;;14.60;22.40;;;;;;4956866;29;20491;-90
2021/05/22 12:37:07;;;;;;;2.43;0.60;;;14.90;25.00;;;;;;4941880;29;20412;-89
2021/05/22 12:39:33;;;;;;;2.10;0.63;;;15.10;15.10;;;;;;4960729;29;20396;-91
2021/05/22 12:41:59;;;;;;;2.60;0.57;;;15.00;2.20;;;;;;4944565;29;20828;-91
2021/05/22 12:44:25;;;;;;;2.37;0.53;;;14.80;13.30;;;;;;4944950;29;20420;-91
2021/05/22 12:46:56;;;;;;;2.30;0.40;;;14.70;19.50;;;;;;4942531;29;20960;-91
2021/05/22 12:49:22;;;;;;;1.97;0.40;;;14.80;23.40;;;;;;4940333;29;20436;-90
2021/05/22 12:52:10;;;;;;;1.27;0.90;;;15.10;21.90;;;;;;4941813;29;20417;-89
2021/05/22 12:54:36;;;;;;;2.03;0.33;;;15.00;1.00;;;;;;4942651;29;20214;-92
2021/05/22 12:57:10;;;;;;;0.93;0.63;;;14.90;1.00;;;;;;4942855;29;20437;-92
2021/05/22 12:59:38;;;;;;;2.83;1.17;;;14.70;9.30;;;;;;4959997;29;20178;-91
2021/05/22 13:02:25;;;;;;;1.33;0.90;;;14.50;18.70;;;;;;4961706;29;20751;-93
2021/05/22 13:05:11;;;;;;;1.10;0.20;;;14.40;25.50;;;;;;4960497;29;20450;-91